Time;durP1;ratioP1;P1;durP2;ratioP2;P2;SDS_P1;SDS_P2;PMS_P1;PMS_P2;Temp;Humidity;BMP_temperature;BMP_pressure;BME280_temperature;BME280_humidity;BME280_pressure;Samples;Min_cycle;Max_cycle;Signal;HPM_P1;HPM_P2
2022/09/06 00:00:06;;;;;;;5.57;4.70;;;14.70;99.90;;;;;;4127561;28;20046;-63
2022/09/06 00:02:07;;;;;;;11.98;5.20;;;14.70;99.90;;;;;;4127934;28;20031;-64
2022/09/06 00:04:08;;;;;;;5.28;4.28;;;14.70;99.90;;;;;;4126410;28;20031;-63
2022/09/06 00:06:12;;;;;;;9.63;4.35;;;14.70;99.90;;;;;;4127373;28;20034;-62
2022/09/06 00:08:14;;;;;;;5.10;3.90;;;14.70;99.90;;;;;;4127078;28;20077;-62
2022/09/06 00:10:15;;;;;;;6.55;4.40;;;14.60;99.90;;;;;;4127860;28;20434;-62
2022/09/06 00:12:16;;;;;;;5.38;4.18;;;14.60;99.90;;;;;;4127151;28;20510;-62
2022/09/06 00:14:17;;;;;;;5.43;4.10;;;14.60;99.90;;;;;;4126734;28;20034;-62
2022/09/06 00:16:22;;;;;;;8.25;3.90;;;14.60;99.90;;;;;;4127376;28;20085;-62
2022/09/06 00:18:23;;;;;;;4.88;4.35;;;14.50;99.90;;;;;;4127766;28;20022;-62
2022/09/06 00:20:26;;;;;;;5.15;3.88;;;14.50;99.90;;;;;;4127350;28;20023;-62
2022/09/06 00:22:28;;;;;;;5.05;4.35;;;14.50;99.90;;;;;;4127503;28;20038;-64
2022/09/06 00:24:29;;;;;;;4.47;3.95;;;14.50;99.90;;;;;;4125481;28;20042;-64
2022/09/06 00:26:30;;;;;;;4.80;4.28;;;14.40;99.90;;;;;;4125389;28;20154;-62
2022/09/06 00:28:31;;;;;;;5.65;4.10;;;14.40;99.90;;;;;;4127899;28;20111;-61
2022/09/06 00:30:33;;;;;;;8.40;4.47;;;14.40;99.90;;;;;;4127454;28;20030;-62
2022/09/06 00:32:34;;;;;;;5.88;4.20;;;14.40;99.90;;;;;;4126568;28;20478;-62
2022/09/06 00:34:35;;;;;;;6.53;4.65;;;14.30;99.90;;;;;;4127568;28;20174;-65
2022/09/06 00:36:36;;;;;;;6.65;4.57;;;14.30;99.90;;;;;;4127985;28;20049;-62
2022/09/06 00:38:39;;;;;;;8.32;5.05;;;14.30;99.90;;;;;;4128466;28;20438;-63
2022/09/06 00:40:41;;;;;;;4.78;4.10;;;14.30;99.90;;;;;;4131012;28;20545;-62
2022/09/06 00:42:42;;;;;;;6.10;4.55;;;14.30;99.90;;;;;;4130235;28;20050;-62
2022/09/06 00:44:43;;;;;;;8.30;4.75;;;14.20;99.90;;;;;;4129832;28;20022;-63
2022/09/06 00:46:48;;;;;;;5.80;4.43;;;14.20;99.90;;;;;;4130101;28;20557;-62
2022/09/06 00:48:53;;;;;;;6.38;4.57;;;14.20;99.90;;;;;;4130869;28;20019;-63
2022/09/06 00:51:00;;;;;;;8.73;4.20;;;14.10;99.90;;;;;;4130281;28;20034;-63
2022/09/06 00:53:01;;;;;;;6.70;4.30;;;14.10;99.90;;;;;;4130678;28;20030;-62
2022/09/06 00:55:03;;;;;;;10.93;4.70;;;14.00;99.90;;;;;;4130120;28;20491;-62
2022/09/06 00:57:04;;;;;;;6.13;4.30;;;14.10;99.90;;;;;;4129043;28;20089;-63
2022/09/06 00:59:06;;;;;;;4.85;3.47;;;14.00;99.90;;;;;;4130253;28;20018;-63
2022/09/06 01:01:07;;;;;;;4.55;4.10;;;14.10;99.90;;;;;;4130109;28;20812;-62
2022/09/06 01:03:09;;;;;;;6.65;3.95;;;14.00;99.90;;;;;;4130173;28;20042;-62
2022/09/06 01:05:12;;;;;;;5.93;4.10;;;14.00;99.90;;;;;;4128919;28;20042;-62
2022/09/06 01:07:19;;;;;;;8.10;4.30;;;13.90;99.90;;;;;;4130017;28;20483;-63
2022/09/06 01:09:48;;;;;;;4.10;3.22;;;13.90;99.90;;;;;;4129999;28;20089;-63
2022/09/06 01:12:44;;;;;;;8.18;4.45;;;13.90;99.90;;;;;;4120242;28;20100;-63
2022/09/06 01:14:50;;;;;;;5.90;4.55;;;13.80;99.90;;;;;;4111808;28;20396;-64
2022/09/06 01:17:26;;;;;;;8.13;4.25;;;13.80;99.90;;;;;;4122090;28;20153;-63
2022/09/06 01:19:51;;;;;;;4.75;4.25;;;13.80;99.90;;;;;;4130276;28;20426;-62
2022/09/06 01:22:12;;;;;;;4.25;3.70;;;13.70;99.90;;;;;;4128330;28;20030;-68
2022/09/06 01:24:24;;;;;;;6.38;4.38;;;13.70;99.90;;;;;;4130116;28;20038;-63
2022/09/06 01:26:50;;;;;;;7.15;3.95;;;13.70;99.90;;;;;;4127841;28;20030;-64
2022/09/06 01:28:52;;;;;;;5.75;3.90;;;13.70;99.90;;;;;;4125042;28;20035;-64
2022/09/06 01:31:14;;;;;;;5.00;4.10;;;13.70;99.90;;;;;;4129368;28;20042;-63
2022/09/06 01:33:31;;;;;;;7.80;4.22;;;13.70;99.90;;;;;;4111318;28;20059;-64
2022/09/06 01:36:03;;;;;;;5.80;4.57;;;13.60;99.90;;;;;;4113586;28;20081;-63
2022/09/06 01:38:06;;;;;;;7.05;4.25;;;13.60;99.90;;;;;;4107968;28;20109;-63
2022/09/06 01:40:07;;;;;;;5.72;4.55;;;13.60;99.90;;;;;;4120836;28;20042;-63
2022/09/06 01:42:19;;;;;;;8.75;4.63;;;13.50;99.90;;;;;;4128824;28;20121;-63
2022/09/06 01:44:22;;;;;;;6.95;4.70;;;13.50;99.90;;;;;;4129618;28;20058;-63
2022/09/06 01:46:43;;;;;;;5.60;4.28;;;13.50;99.90;;;;;;4128842;28;20046;-62
2022/09/06 01:49:05;;;;;;;5.70;4.15;;;13.50;99.90;;;;;;4129560;28;20035;-64
2022/09/06 01:51:27;;;;;;;8.63;4.55;;;13.50;99.90;;;;;;4128657;28;20104;-64
2022/09/06 01:53:40;;;;;;;10.63;4.97;;;13.40;99.90;;;;;;4128674;28;20027;-63
2022/09/06 01:55:50;;;;;;;10.67;5.17;;;13.40;99.90;;;;;;4129203;28;20076;-63
2022/09/06 01:57:57;;;;;;;8.57;4.28;;;13.40;99.90;;;;;;4129880;28;20093;-63
2022/09/06 02:00:08;;;;;;;6.43;4.60;;;13.40;99.90;;;;;;4129127;28;20088;-63
2022/09/06 02:02:30;;;;;;;5.32;4.40;;;13.40;99.90;;;;;;4129740;28;20042;-63
2022/09/06 02:05:01;;;;;;;7.43;4.20;;;13.40;99.90;;;;;;4125775;28;20031;-64
2022/09/06 02:07:23;;;;;;;6.25;4.38;;;13.30;99.90;;;;;;4127045;28;20034;-64
2022/09/06 02:09:28;;;;;;;5.53;4.43;;;13.30;99.90;;;;;;4128673;28;20034;-64
2022/09/06 02:11:38;;;;;;;6.90;4.33;;;13.30;99.90;;;;;;4129333;28;20030;-63
2022/09/06 02:13:40;;;;;;;7.95;5.25;;;13.20;99.90;;;;;;4128619;28;20034;-63
2022/09/06 02:15:50;;;;;;;11.50;4.90;;;13.20;99.90;;;;;;4129621;28;20030;-63
2022/09/06 02:18:04;;;;;;;5.63;4.90;;;13.20;99.90;;;;;;4128711;28;20057;-64
2022/09/06 02:20:11;;;;;;;5.50;4.73;;;13.10;99.90;;;;;;4129228;28;20038;-63
2022/09/06 02:22:16;;;;;;;8.87;4.33;;;13.10;99.90;;;;;;4128408;28;20042;-62
2022/09/06 02:24:24;;;;;;;6.77;4.60;;;13.10;99.90;;;;;;4129533;28;20462;-63
2022/09/06 02:26:31;;;;;;;5.10;4.13;;;13.10;99.90;;;;;;4127034;28;20026;-63
2022/09/06 02:28:33;;;;;;;5.87;4.83;;;13.10;99.90;;;;;;4129482;28;20061;-62
2022/09/06 02:30:38;;;;;;;6.90;4.20;;;13.00;99.90;;;;;;4124413;28;20038;-64
2022/09/06 02:32:47;;;;;;;8.87;5.43;;;13.00;99.90;;;;;;4120989;28;20030;-64
2022/09/06 02:34:54;;;;;;;5.03;4.33;;;13.00;99.90;;;;;;4126409;28;20084;-63
2022/09/06 02:36:55;;;;;;;7.03;4.27;;;12.90;99.90;;;;;;4129247;28;20109;-64
2022/09/06 02:38:59;;;;;;;7.23;4.40;;;12.90;99.90;;;;;;4127784;28;20030;-63
2022/09/06 02:41:02;;;;;;;5.93;4.47;;;12.90;99.90;;;;;;4128900;28;20046;-64
2022/09/06 02:43:03;;;;;;;6.97;4.50;;;12.80;99.90;;;;;;4128358;28;20042;-63
2022/09/06 02:45:04;;;;;;;4.93;4.37;;;12.80;99.90;;;;;;4128295;28;20057;-64
2022/09/06 02:47:06;;;;;;;6.23;5.27;;;12.70;99.90;;;;;;4128813;28;20573;-63
2022/09/06 02:49:07;;;;;;;8.63;4.70;;;12.70;99.90;;;;;;4128582;28;20104;-63
2022/09/06 02:51:08;;;;;;;8.20;5.73;;;12.60;99.90;;;;;;4128555;28;20069;-63
2022/09/06 02:53:12;;;;;;;9.03;4.97;;;12.50;99.90;;;;;;4127454;28;20038;-64
2022/09/06 02:55:13;;;;;;;7.40;5.37;;;12.60;99.90;;;;;;4112532;28;20035;-64
2022/09/06 02:57:14;;;;;;;6.60;5.03;;;12.50;99.90;;;;;;4112355;28;20038;-64
2022/09/06 02:59:15;;;;;;;6.27;5.00;;;12.50;99.90;;;;;;4112761;28;20101;-64
2022/09/06 03:01:16;;;;;;;11.10;6.07;;;12.50;99.90;;;;;;4111854;28;20546;-64
2022/09/06 03:03:21;;;;;;;7.93;4.80;;;12.50;99.90;;;;;;4112511;28;20085;-65
2022/09/06 03:05:23;;;;;;;7.57;5.77;;;12.50;99.90;;;;;;4115010;28;20442;-64
2022/09/06 03:07:25;;;;;;;6.90;5.53;;;12.50;99.90;;;;;;4127570;28;20034;-64
2022/09/06 03:09:26;;;;;;;8.60;5.47;;;12.50;99.90;;;;;;4127861;28;20022;-64
2022/09/06 03:11:27;;;;;;;9.50;6.37;;;12.60;99.90;;;;;;4128468;28;20031;-64
2022/09/06 03:13:29;;;;;;;8.33;6.27;;;12.60;99.90;;;;;;4127751;28;20423;-64
2022/09/06 03:15:30;;;;;;;7.47;6.07;;;12.50;99.90;;;;;;4127663;28;20561;-64
2022/09/06 03:17:31;;;;;;;9.27;6.47;;;12.40;99.90;;;;;;4128222;28;20081;-64
2022/09/06 03:19:32;;;;;;;13.80;6.70;;;12.40;99.90;;;;;;4128118;28;20022;-65
2022/09/06 03:21:33;;;;;;;7.47;6.67;;;12.30;99.90;;;;;;4127955;28;20081;-65
2022/09/06 03:23:34;;;;;;;7.77;6.20;;;12.30;99.90;;;;;;4127921;28;20093;-67
2022/09/06 03:25:36;;;;;;;9.90;6.90;;;12.30;99.90;;;;;;4128318;28;20085;-64
2022/09/06 03:27:37;;;;;;;7.43;6.57;;;12.20;99.90;;;;;;4126683;28;20096;-65
2022/09/06 03:29:38;;;;;;;7.73;6.70;;;12.30;99.90;;;;;;4128281;28;20027;-67
2022/09/06 03:31:39;;;;;;;7.80;6.40;;;12.20;99.90;;;;;;4127707;28;20026;-64
2022/09/06 03:33:41;;;;;;;9.03;6.50;;;12.20;99.90;;;;;;4125105;28;20026;-64
2022/09/06 03:35:53;;;;;;;11.57;7.53;;;12.10;99.90;;;;;;4122917;28;20357;-64
2022/09/06 03:37:55;;;;;;;8.97;6.40;;;12.10;99.90;;;;;;4126560;28;20109;-63
2022/09/06 03:39:56;;;;;;;11.53;6.33;;;12.10;99.90;;;;;;4127161;28;20085;-63
2022/09/06 03:41:57;;;;;;;6.47;5.70;;;12.00;99.90;;;;;;4126054;28;20038;-63
2022/09/06 03:43:58;;;;;;;12.30;7.60;;;12.00;99.90;;;;;;4121766;28;20432;-62
2022/09/06 03:45:59;;;;;;;11.07;6.20;;;12.00;99.90;;;;;;4126641;28;20046;-63
2022/09/06 03:48:00;;;;;;;8.03;7.23;;;11.90;99.90;;;;;;4127285;28;20027;-63
2022/09/06 03:50:01;;;;;;;14.13;6.83;;;12.00;99.90;;;;;;4126863;28;20038;-63
2022/09/06 03:52:03;;;;;;;10.07;7.47;;;12.00;99.90;;;;;;4134275;28;20081;-64
2022/09/06 03:54:04;;;;;;;8.13;5.83;;;11.90;99.90;;;;;;4125722;28;20039;-65
2022/09/06 03:56:05;;;;;;;12.63;6.90;;;11.90;99.90;;;;;;4127455;28;20030;-65
2022/09/06 03:58:06;;;;;;;8.33;6.40;;;11.90;99.90;;;;;;4127604;28;20874;-63
2022/09/06 04:00:09;;;;;;;8.23;6.07;;;11.80;99.90;;;;;;4126884;28;20046;-63
2022/09/06 04:02:10;;;;;;;10.73;7.00;;;11.80;99.90;;;;;;4126980;28;20046;-63
2022/09/06 04:04:11;;;;;;;9.33;7.40;;;11.90;99.90;;;;;;4127774;28;20093;-64
2022/09/06 04:06:13;;;;;;;13.10;7.30;;;11.80;99.90;;;;;;4125055;28;20101;-64
2022/09/06 04:08:14;;;;;;;9.90;7.60;;;11.90;99.90;;;;;;4127647;28;20047;-63
2022/09/06 04:10:15;;;;;;;13.87;7.87;;;11.90;99.90;;;;;;4126879;28;20082;-65
2022/09/06 04:12:16;;;;;;;12.80;7.63;;;12.00;99.90;;;;;;4127584;28;20100;-65
2022/09/06 04:14:18;;;;;;;13.00;8.30;;;12.20;99.90;;;;;;4129265;28;20077;-64
2022/09/06 04:16:19;;;;;;;14.33;8.07;;;12.30;99.90;;;;;;4129339;28;20065;-66
2022/09/06 04:18:21;;;;;;;9.07;6.93;;;12.50;99.90;;;;;;4128904;28;20043;-66
2022/09/06 04:20:22;;;;;;;10.53;7.30;;;12.60;99.90;;;;;;4129250;28;20453;-66
2022/09/06 04:22:23;;;;;;;15.63;7.17;;;12.80;99.90;;;;;;4129902;28;20026;-65
2022/09/06 04:24:24;;;;;;;13.07;7.57;;;13.10;99.90;;;;;;4130544;28;20100;-65
2022/09/06 04:26:25;;;;;;;12.67;6.80;;;13.30;99.90;;;;;;4129451;28;20419;-66
2022/09/06 04:28:27;;;;;;;7.27;6.57;;;13.50;99.90;;;;;;4125051;28;20046;-65
2022/09/06 04:30:28;;;;;;;13.87;7.00;;;13.80;99.90;;;;;;4130416;28;20046;-65
2022/09/06 04:32:31;;;;;;;8.53;6.63;;;14.00;99.90;;;;;;4129766;28;20042;-64
2022/09/06 04:34:32;;;;;;;10.67;6.60;;;13.90;99.90;;;;;;4126206;28;20606;-63
2022/09/06 04:36:34;;;;;;;8.83;5.93;;;13.90;99.90;;;;;;4127538;28;20034;-63
2022/09/06 04:38:40;;;;;;;10.82;5.68;;;14.10;99.90;;;;;;4127246;28;20050;-66
2022/09/06 04:40:41;;;;;;;9.68;5.82;;;14.40;99.90;;;;;;4114843;28;20034;-64
2022/09/06 04:42:43;;;;;;;6.28;4.63;;;14.60;99.90;;;;;;4114573;28;20050;-65
2022/09/06 04:44:44;;;;;;;11.52;5.78;;;14.90;99.90;;;;;;4121817;28;20116;-64
2022/09/06 04:46:45;;;;;;;9.38;5.07;;;15.20;99.90;;;;;;4127979;28;20451;-64
2022/09/06 04:48:47;;;;;;;4.88;4.43;;;15.50;99.90;;;;;;4127739;28;20026;-62
2022/09/06 04:50:48;;;;;;;4.95;4.45;;;15.60;99.90;;;;;;4128712;28;20430;-64
2022/09/06 04:52:49;;;;;;;4.63;3.83;;;15.60;99.90;;;;;;4129567;28;20097;-63
2022/09/06 04:54:50;;;;;;;11.52;4.32;;;15.70;99.90;;;;;;4128739;28;20099;-63
2022/09/06 04:56:51;;;;;;;8.15;4.63;;;15.80;99.90;;;;;;4130023;28;20074;-67
2022/09/06 04:58:54;;;;;;;6.20;5.05;;;15.90;99.90;;;;;;4130420;28;20112;-64
2022/09/06 05:00:55;;;;;;;6.10;5.47;;;16.00;99.90;;;;;;4129842;28;20026;-64
2022/09/06 05:02:57;;;;;;;16.67;6.20;;;16.20;99.90;;;;;;4129749;28;20088;-64
2022/09/06 05:04:58;;;;;;;10.20;5.85;;;16.40;99.90;;;;;;4129869;28;20102;-65
2022/09/06 05:07:07;;;;;;;9.98;5.75;;;16.80;99.90;;;;;;4129523;28;20045;-66
2022/09/06 05:09:09;;;;;;;12.43;6.50;;;17.20;99.90;;;;;;4129940;28;20112;-65
2022/09/06 05:11:10;;;;;;;12.50;6.38;;;17.50;99.90;;;;;;4129206;28;20065;-64
2022/09/06 05:13:11;;;;;;;10.25;5.85;;;17.70;99.90;;;;;;4129643;28;20076;-65
2022/09/06 05:15:12;;;;;;;14.57;6.30;;;17.70;99.90;;;;;;4129193;28;20046;-66
2022/09/06 05:17:13;;;;;;;10.65;5.22;;;17.50;99.90;;;;;;4129606;28;20089;-65
2022/09/06 05:19:16;;;;;;;9.70;5.55;;;17.40;99.90;;;;;;4128748;28;20042;-65
2022/09/06 05:21:17;;;;;;;11.43;5.38;;;17.00;99.90;;;;;;4129674;28;20026;-64
2022/09/06 05:23:22;;;;;;;7.60;5.20;;;16.60;99.90;;;;;;4129281;28;20706;-64
2022/09/06 05:25:23;;;;;;;15.52;6.50;;;16.20;99.90;;;;;;4127895;28;20034;-65
2022/09/06 05:27:24;;;;;;;9.63;7.00;;;15.80;99.90;;;;;;4129320;28;20022;-64
2022/09/06 05:29:25;;;;;;;14.10;6.82;;;15.50;99.90;;;;;;4129801;28;20062;-64
2022/09/06 05:31:29;;;;;;;19.30;9.07;;;15.30;99.90;;;;;;4129323;28;20018;-64
2022/09/06 05:33:30;;;;;;;14.88;10.07;;;15.10;99.90;;;;;;4129190;28;20030;-65
2022/09/06 05:35:31;;;;;;;29.70;11.48;;;14.90;99.90;;;;;;4129264;28;20104;-64
2022/09/06 05:37:32;;;;;;;15.55;11.50;;;15.00;99.90;;;;;;4128607;28;20679;-64
2022/09/06 05:39:34;;;;;;;16.75;11.50;;;15.20;99.90;;;;;;4129329;28;20581;-65
2022/09/06 05:41:35;;;;;;;14.18;9.52;;;15.30;99.90;;;;;;4128786;28;20427;-64
2022/09/06 05:43:36;;;;;;;16.08;10.73;;;15.60;99.90;;;;;;4128673;28;20038;-64
2022/09/06 05:45:37;;;;;;;16.77;9.85;;;15.80;99.90;;;;;;4128392;28;20096;-64
2022/09/06 05:47:38;;;;;;;14.70;10.48;;;16.00;99.90;;;;;;4129173;28;20108;-66
2022/09/06 05:49:40;;;;;;;13.35;9.95;;;16.20;99.90;;;;;;4128850;28;20046;-66
2022/09/06 05:51:41;;;;;;;18.15;10.48;;;16.10;99.90;;;;;;4129267;28;20678;-64
2022/09/06 05:53:44;;;;;;;16.02;11.32;;;16.00;99.90;;;;;;4127064;28;20030;-63
2022/09/06 05:55:45;;;;;;;14.32;9.85;;;15.70;99.90;;;;;;4129169;28;20034;-64
2022/09/06 05:57:47;;;;;;;14.70;11.30;;;15.50;99.90;;;;;;4128731;28;20031;-64
2022/09/06 05:59:48;;;;;;;15.88;10.75;;;15.60;99.90;;;;;;4129524;28;20022;-66
2022/09/06 06:01:53;;;;;;;15.45;9.85;;;15.70;99.90;;;;;;4128866;28;20050;-63
2022/09/06 06:03:59;;;;;;;18.55;11.82;;;15.80;99.90;;;;;;4128761;28;20058;-64
2022/09/06 06:06:00;;;;;;;18.67;11.18;;;15.80;99.90;;;;;;4128752;28;20034;-67
2022/09/06 06:08:01;;;;;;;22.50;12.40;;;15.90;99.90;;;;;;4128794;28;20038;-64
2022/09/06 06:10:03;;;;;;;14.93;10.32;;;15.80;99.90;;;;;;4128804;28;20062;-65
2022/09/06 06:12:05;;;;;;;14.15;9.95;;;15.60;99.90;;;;;;4128587;28;20038;-65
2022/09/06 06:14:06;;;;;;;16.63;11.13;;;15.70;99.90;;;;;;4128901;28;20510;-67
2022/09/06 06:16:12;;;;;;;12.82;10.05;;;15.90;99.90;;;;;;4128379;28;20038;-65
2022/09/06 06:18:14;;;;;;;15.77;11.27;;;16.00;99.90;;;;;;4128836;28;20479;-64
2022/09/06 06:20:15;;;;;;;16.23;10.43;;;16.00;99.90;;;;;;4128172;28;20061;-65
2022/09/06 06:22:17;;;;;;;15.70;10.52;;;15.80;99.90;;;;;;4129306;28;20038;-65
2022/09/06 06:24:18;;;;;;;16.77;10.27;;;15.80;99.90;;;;;;4128151;28;20030;-65
2022/09/06 06:26:20;;;;;;;16.13;10.43;;;15.60;99.90;;;;;;4129042;28;20064;-64
2022/09/06 06:28:21;;;;;;;15.50;10.48;;;15.40;99.90;;;;;;4128277;28;20364;-65
2022/09/06 06:30:23;;;;;;;17.90;11.25;;;15.30;99.90;;;;;;4128961;28;20138;-65
2022/09/06 06:32:24;;;;;;;17.38;10.95;;;15.20;99.90;;;;;;4128605;28;20065;-65
2022/09/06 06:34:25;;;;;;;18.25;11.77;;;15.10;99.90;;;;;;4128550;28;20356;-65
2022/09/06 06:36:29;;;;;;;18.20;11.90;;;15.10;99.90;;;;;;4128294;28;20038;-65
2022/09/06 06:38:36;;;;;;;17.77;12.00;;;15.20;99.90;;;;;;4128287;28;20426;-64
2022/09/06 06:40:37;;;;;;;17.27;11.63;;;15.20;99.90;;;;;;4128480;28;20065;-65
2022/09/06 06:42:38;;;;;;;16.98;10.82;;;15.20;99.90;;;;;;4128182;28;20031;-64
2022/09/06 06:44:39;;;;;;;20.73;13.23;;;15.10;99.90;;;;;;4128063;28;20093;-65
2022/09/06 06:46:40;;;;;;;16.48;10.52;;;15.10;99.90;;;;;;4128227;28;20094;-64
2022/09/06 06:48:43;;;;;;;14.35;10.18;;;15.00;99.90;;;;;;4128392;28;20458;-64
2022/09/06 06:50:44;;;;;;;14.23;10.57;;;15.00;99.90;;;;;;4127600;28;20023;-66
2022/09/06 06:52:45;;;;;;;17.27;11.45;;;15.10;99.90;;;;;;4128429;28;20085;-63
2022/09/06 06:54:48;;;;;;;17.92;12.48;;;15.20;99.90;;;;;;4127729;28;20184;-66
2022/09/06 06:56:50;;;;;;;12.77;10.05;;;15.30;99.90;;;;;;4128634;28;20081;-65
2022/09/06 06:58:55;;;;;;;14.93;11.52;;;15.40;99.90;;;;;;4127796;28;20030;-70
2022/09/06 07:00:56;;;;;;;16.15;11.82;;;15.40;99.90;;;;;;4128250;28;20375;-65
2022/09/06 07:02:58;;;;;;;15.20;10.85;;;15.30;99.90;;;;;;4127746;28;20027;-71
2022/09/06 07:04:59;;;;;;;16.83;12.25;;;15.30;99.90;;;;;;4127785;28;20092;-65
2022/09/06 07:07:01;;;;;;;19.80;11.02;;;15.30;99.90;;;;;;4127785;28;20031;-64
2022/09/06 07:09:02;;;;;;;18.88;11.40;;;15.20;99.90;;;;;;4128036;28;20442;-66
2022/09/06 07:11:11;;;;;;;18.70;12.02;;;15.20;99.90;;;;;;4126548;28;20466;-65
2022/09/06 07:13:12;;;;;;;15.73;10.75;;;15.30;99.90;;;;;;4127553;28;20101;-64
2022/09/06 07:15:14;;;;;;;17.27;12.48;;;15.30;99.90;;;;;;4126592;28;20038;-65
2022/09/06 07:17:15;;;;;;;17.20;12.40;;;15.20;99.90;;;;;;4127818;28;20061;-64
2022/09/06 07:19:16;;;;;;;18.45;12.35;;;15.40;99.90;;;;;;4127842;28;20038;-64
2022/09/06 07:21:19;;;;;;;15.90;12.52;;;15.60;99.90;;;;;;4127357;28;20038;-65
2022/09/06 07:23:23;;;;;;;18.98;13.05;;;15.80;99.90;;;;;;4127794;28;20108;-64
2022/09/06 07:25:25;;;;;;;22.70;15.88;;;16.00;99.90;;;;;;4127524;28;20577;-72
2022/09/06 07:27:26;;;;;;;15.60;11.55;;;16.10;99.90;;;;;;4127889;28;20490;-65
2022/09/06 07:29:27;;;;;;;19.50;12.27;;;16.20;99.90;;;;;;4127321;28;20022;-72
2022/09/06 07:31:30;;;;;;;22.73;13.15;;;16.10;99.90;;;;;;4128016;28;20653;-64
2022/09/06 07:33:33;;;;;;;19.55;12.73;;;16.10;99.90;;;;;;4127130;28;20034;-64
2022/09/06 07:35:34;;;;;;;22.00;12.45;;;16.10;99.90;;;;;;4127673;28;20088;-68
2022/09/06 07:37:35;;;;;;;23.42;13.82;;;16.20;99.90;;;;;;4127093;28;20494;-64
2022/09/06 07:39:37;;;;;;;24.90;13.98;;;16.40;99.90;;;;;;4127778;28;20089;-65
2022/09/06 07:41:40;;;;;;;17.60;12.70;;;16.70;99.90;;;;;;4127078;28;20026;-64
2022/09/06 07:43:41;;;;;;;18.67;12.85;;;17.00;99.90;;;;;;4127712;28;20046;-64
2022/09/06 07:45:42;;;;;;;17.73;11.75;;;17.20;99.90;;;;;;4127153;28;20121;-64
2022/09/06 07:47:44;;;;;;;20.80;12.63;;;17.50;99.90;;;;;;4126552;28;20108;-64
2022/09/06 07:49:45;;;;;;;20.58;12.25;;;18.00;99.90;;;;;;4127119;28;20034;-64
2022/09/06 07:51:47;;;;;;;17.02;11.93;;;18.50;99.90;;;;;;4127110;28;20549;-64
2022/09/06 07:53:50;;;;;;;16.05;11.27;;;18.70;99.90;;;;;;4127100;28;20022;-64
2022/09/06 07:55:52;;;;;;;16.38;10.68;;;18.90;99.90;;;;;;4127015;28;20081;-68
2022/09/06 07:57:53;;;;;;;18.23;12.40;;;19.10;99.90;;;;;;4127240;28;20023;-65
2022/09/06 07:59:54;;;;;;;21.17;11.20;;;19.10;99.90;;;;;;4127524;28;20494;-64
2022/09/06 08:01:55;;;;;;;13.40;9.23;;;19.10;99.90;;;;;;4127681;28;20491;-65
2022/09/06 08:03:59;;;;;;;18.92;11.55;;;19.30;99.90;;;;;;4126792;28;20042;-65
2022/09/06 08:06:00;;;;;;;17.77;10.30;;;19.70;99.90;;;;;;4127348;28;20088;-64
2022/09/06 08:08:01;;;;;;;14.75;10.27;;;19.50;99.90;;;;;;4126754;28;20023;-63
2022/09/06 08:10:03;;;;;;;16.05;10.35;;;19.90;99.90;;;;;;4126919;28;20574;-64
2022/09/06 08:12:07;;;;;;;15.20;10.02;;;19.80;99.90;;;;;;4126590;28;20035;-65
2022/09/06 08:14:09;;;;;;;12.68;8.88;;;19.80;99.90;;;;;;4127097;28;20085;-65
2022/09/06 08:16:12;;;;;;;13.85;7.43;;;19.90;99.90;;;;;;4127280;28;20118;-65
2022/09/06 08:18:13;;;;;;;16.60;10.65;;;20.30;99.90;;;;;;4127234;28;20047;-64
2022/09/06 08:20:15;;;;;;;17.00;9.95;;;20.60;99.90;;;;;;4126938;28;20479;-65
2022/09/06 08:22:16;;;;;;;17.63;10.55;;;20.90;99.90;;;;;;4125876;28;20046;-64
2022/09/06 08:24:17;;;;;;;17.17;11.10;;;20.90;99.90;;;;;;4125712;28;20489;-65
2022/09/06 08:26:21;;;;;;;18.65;10.35;;;21.00;99.90;;;;;;4126546;28;20042;-64
2022/09/06 08:28:22;;;;;;;12.38;9.15;;;20.80;99.90;;;;;;4126722;28;20026;-65
2022/09/06 08:30:23;;;;;;;14.00;8.52;;;20.60;99.90;;;;;;4127307;28;20030;-64
2022/09/06 08:32:25;;;;;;;12.82;7.85;;;20.40;99.90;;;;;;4127448;28;20434;-63
2022/09/06 08:34:26;;;;;;;11.05;7.70;;;20.50;99.90;;;;;;4126642;28;20078;-64
2022/09/06 08:36:29;;;;;;;14.23;7.38;;;20.60;99.90;;;;;;4127109;28;20052;-64
2022/09/06 08:38:31;;;;;;;13.45;8.55;;;20.90;99.90;;;;;;4126135;28;20046;-65
2022/09/06 08:40:32;;;;;;;11.68;8.20;;;21.10;99.90;;;;;;4127309;28;20046;-64
2022/09/06 08:42:38;;;;;;;12.65;8.73;;;21.10;99.90;;;;;;4126578;28;20109;-64
2022/09/06 08:44:46;;;;;;;8.55;6.95;;;21.00;99.90;;;;;;4126863;28;20034;-65
2022/09/06 08:46:52;;;;;;;9.32;7.47;;;20.80;99.90;;;;;;4126542;28;20074;-65
2022/09/06 08:48:54;;;;;;;8.70;6.93;;;20.80;99.90;;;;;;4127275;28;20070;-65
2022/09/06 08:51:35;;;;;;;15.35;6.25;;;20.70;99.90;;;;;;4126575;28;20081;-66
2022/09/06 08:53:45;;;;;;;11.80;5.28;;;20.70;99.90;;;;;;4127201;28;20452;-66
2022/09/06 08:55:54;;;;;;;6.55;4.22;;;20.70;99.90;;;;;;4126705;28;20034;-69
2022/09/06 08:58:05;;;;;;;7.82;4.97;;;20.50;99.90;;;;;;4126854;28;20553;-66
2022/09/06 09:00:12;;;;;;;5.85;4.63;;;20.60;99.90;;;;;;4128518;28;20030;-65
2022/09/06 09:02:19;;;;;;;7.75;3.45;;;20.90;99.90;;;;;;4129920;28;20042;-64
2022/09/06 09:04:23;;;;;;;5.68;3.40;;;21.20;99.90;;;;;;4129306;28;20100;-64
2022/09/06 09:06:27;;;;;;;3.92;2.90;;;21.60;99.90;;;;;;4130224;28;20156;-65
2022/09/06 09:08:52;;;;;;;5.95;3.38;;;21.80;99.90;;;;;;4129493;28;20554;-69
2022/09/06 09:10:56;;;;;;;3.47;3.05;;;22.00;99.90;;;;;;4130066;28;20426;-70
2022/09/06 09:13:02;;;;;;;2.47;2.28;;;21.80;99.90;;;;;;4129038;28;20046;-64
2022/09/06 09:15:07;;;;;;;4.32;2.53;;;21.80;99.90;;;;;;4129791;28;20038;-65
2022/09/06 09:17:19;;;;;;;3.70;2.42;;;21.90;99.90;;;;;;4129342;28;20054;-64
2022/09/06 09:19:20;;;;;;;4.22;2.88;;;22.00;99.90;;;;;;4129195;28;20030;-65
2022/09/06 09:21:24;;;;;;;6.38;3.33;;;22.20;99.90;;;;;;4129355;28;21695;-65
2022/09/06 09:23:26;;;;;;;5.93;2.85;;;22.50;99.90;;;;;;4129518;28;20434;-65
2022/09/06 09:25:31;;;;;;;8.43;3.35;;;22.70;99.90;;;;;;4129040;28;20089;-65
2022/09/06 09:27:33;;;;;;;5.55;2.80;;;22.70;99.90;;;;;;4129388;28;20046;-66
2022/09/06 09:29:54;;;;;;;5.93;2.65;;;22.80;99.90;;;;;;4129426;28;20089;-64
2022/09/06 09:31:56;;;;;;;8.05;3.53;;;23.10;99.90;;;;;;4129555;28;20454;-64
2022/09/06 09:33:58;;;;;;;4.75;3.80;;;23.00;99.90;;;;;;4129267;28;20046;-66
2022/09/06 09:36:03;;;;;;;3.85;3.05;;;22.70;99.90;;;;;;4129257;28;20026;-65
2022/09/06 09:38:11;;;;;;;3.65;2.22;;;22.40;99.90;;;;;;4129211;28;20038;-64
2022/09/06 09:40:37;;;;;;;7.65;3.00;;;22.20;99.90;;;;;;4129217;28;20038;-66
2022/09/06 09:42:39;;;;;;;4.38;2.35;;;22.00;99.90;;;;;;4129177;28;20081;-65
2022/09/06 09:44:44;;;;;;;3.13;2.20;;;21.90;99.90;;;;;;4128928;28;20434;-65
2022/09/06 09:46:45;;;;;;;2.45;2.17;;;21.90;99.90;;;;;;4128750;28;20050;-64
2022/09/06 09:49:08;;;;;;;6.15;2.10;;;21.90;99.90;;;;;;4128991;28;20077;-68
2022/09/06 09:51:37;;;;;;;4.43;1.63;;;21.90;99.90;;;;;;4127578;28;20089;-64
2022/09/06 09:53:51;;;;;;;4.85;2.03;;;21.90;99.90;;;;;;4127225;28;20093;-64
2022/09/06 09:55:57;;;;;;;4.95;2.47;;;22.10;99.90;;;;;;4128688;28;20097;-65
2022/09/06 09:57:58;;;;;;;2.47;2.28;;;22.10;99.90;;;;;;4128692;28;20075;-66
2022/09/06 10:00:00;;;;;;;4.10;1.90;;;22.00;99.90;;;;;;4128560;28;20089;-65
2022/09/06 10:02:15;;;;;;;3.17;2.30;;;22.00;99.90;;;;;;4129730;28;20046;-66
2022/09/06 10:04:20;;;;;;;2.63;2.17;;;22.00;99.90;;;;;;4128869;28;20164;-64
2022/09/06 10:06:25;;;;;;;2.03;1.55;;;22.00;99.90;;;;;;4128711;28;20069;-64
2022/09/06 10:08:31;;;;;;;3.58;2.60;;;21.90;99.90;;;;;;4128577;28;20077;-65
2022/09/06 10:10:41;;;;;;;1.80;1.70;;;21.90;99.90;;;;;;4128116;28;20034;-64
2022/09/06 10:12:42;;;;;;;4.68;1.58;;;22.00;99.90;;;;;;4128531;28;20080;-64
2022/09/06 10:14:46;;;;;;;4.13;1.70;;;22.20;99.90;;;;;;4128638;28;20097;-65
2022/09/06 10:16:49;;;;;;;3.47;1.70;;;22.50;99.90;;;;;;4128722;28;20030;-65
2022/09/06 10:18:51;;;;;;;8.07;1.70;;;22.60;99.90;;;;;;4128459;28;20018;-64
2022/09/06 10:21:01;;;;;;;3.15;1.77;;;22.60;99.90;;;;;;4128720;28;20027;-65
2022/09/06 10:23:26;;;;;;;5.80;1.95;;;22.60;99.90;;;;;;4128361;28;20085;-64
2022/09/06 10:25:54;;;;;;;3.45;2.05;;;22.70;99.90;;;;;;4128092;28;20403;-67
2022/09/06 10:28:04;;;;;;;4.22;2.15;;;23.00;99.70;;;;;;4128664;28;20453;-65
2022/09/06 10:30:07;;;;;;;8.05;2.28;;;23.30;99.90;;;;;;4128289;28;20076;-65
2022/09/06 10:32:26;;;;;;;12.93;3.20;;;23.40;99.90;;;;;;4128699;28;20042;-64
2022/09/06 10:34:43;;;;;;;5.70;2.10;;;23.70;99.60;;;;;;4128458;28;20100;-64
2022/09/06 10:37:05;;;;;;;16.90;3.08;;;23.50;98.90;;;;;;4128435;28;20076;-64
2022/09/06 10:39:38;;;;;;;12.25;3.10;;;23.40;99.80;;;;;;4127980;28;20088;-64
2022/09/06 10:41:49;;;;;;;14.07;3.25;;;23.20;98.50;;;;;;4127247;28;20073;-66
2022/09/06 10:44:32;;;;;;;15.55;3.20;;;23.20;99.70;;;;;;4127550;28;20104;-65